Avoca, Arkansas
Current Conditions -  °F | °C
As of 7:57 AM on Saturday 25 Oct 2014 (Local Time) from KROG Reporting Station
Clear Clear  
Wind Chill: 16°   Ceiling: Unl
Heat Index: 16°   Visibility: 10mi
Dew Point: 14°   Wind: 7mph
Humidity: 87%   Direction: 210°SSW
Pressure: 30.11"   Gusts: NA
Location:  36.4°N, 94.07°W
Report Text: KROG 251257Z 21006KT 10SM CLR 16/14 A3011 RMK AO2 SLP190 T01610139
Loading
Personal Weather Stations






























Interactive Weather Map
Tropical Storm Tracking
New forecast layout! Learn more

10-Day Weather Forecast

Advertisements
Track Severe Weather on mobile